createdAt,value
2018-09-19T00:01:15.747Z,20.56
2018-09-19T00:02:15.066Z,20.57
2018-09-19T00:04:15.026Z,20.54
2018-09-19T00:05:14.028Z,20.46
2018-09-19T00:07:11.000Z,20.46
2018-09-19T00:08:11.501Z,20.34
2018-09-19T00:10:08.939Z,20.38
2018-09-19T00:11:08.901Z,20.41
2018-09-19T00:13:08.347Z,20.35
2018-09-19T00:14:07.072Z,20.34
2018-09-19T00:16:05.594Z,20.25
2018-09-19T00:17:05.015Z,20.20
2018-09-19T00:19:04.503Z,20.07
2018-09-19T00:20:04.345Z,20.07
2018-09-19T00:22:02.634Z,20.00
2018-09-19T00:23:01.384Z,20.01
2018-09-19T00:24:59.345Z,19.97
2018-09-19T00:25:59.381Z,19.95
2018-09-19T00:27:58.308Z,19.85
2018-09-19T00:28:57.304Z,19.74
2018-09-19T00:30:56.151Z,19.70
2018-09-19T00:31:55.409Z,19.74
2018-09-19T00:33:58.760Z,19.86
2018-09-19T00:34:56.711Z,19.86
2018-09-19T00:36:55.730Z,19.75
2018-09-19T00:37:54.620Z,19.74
2018-09-19T00:39:52.959Z,19.63
2018-09-19T00:40:53.052Z,19.78
2018-09-19T00:42:52.415Z,19.71
2018-09-19T00:45:26.584Z,19.65
2018-09-19T00:46:26.629Z,19.55
2018-09-19T00:48:24.608Z,19.43
2018-09-19T00:49:24.582Z,19.49
2018-09-19T00:51:22.679Z,19.55
2018-09-19T00:52:22.695Z,19.47
2018-09-19T00:54:21.195Z,19.47
2018-09-19T00:55:25.735Z,19.38
2018-09-19T00:57:21.672Z,19.38
2018-09-19T00:58:19.658Z,19.43
2018-09-19T01:00:18.737Z,19.37
2018-09-19T01:01:17.702Z,19.25
2018-09-19T01:03:19.305Z,19.30
2018-09-19T01:04:19.284Z,19.32
2018-09-19T01:06:19.469Z,19.23
2018-09-19T01:07:17.556Z,19.20
2018-09-19T01:09:18.007Z,19.25
2018-09-19T01:10:18.010Z,19.12
2018-09-19T01:12:16.474Z,19.13
2018-09-19T01:13:16.124Z,19.07
2018-09-19T01:15:14.128Z,19.15
2018-09-19T01:16:14.583Z,19.05
2018-09-19T01:18:14.274Z,19.07
2018-09-19T01:19:12.548Z,19.07
2018-09-19T01:21:11.123Z,18.93
2018-09-19T01:22:11.671Z,18.97
2018-09-19T01:24:09.185Z,18.93
2018-09-19T01:25:10.048Z,18.90
2018-09-19T01:27:07.301Z,18.97
2018-09-19T01:28:07.315Z,18.93
2018-09-19T01:30:17.338Z,18.99
2018-09-19T01:31:17.186Z,18.87
2018-09-19T01:33:15.228Z,18.84
2018-09-19T01:34:15.634Z,18.86
2018-09-19T01:36:17.965Z,18.81
2018-09-19T01:37:11.296Z,18.76
2018-09-19T01:39:09.132Z,18.72
2018-09-19T01:40:10.094Z,18.78
2018-09-19T01:42:08.078Z,18.76
2018-09-19T01:43:07.989Z,18.78
2018-09-19T01:45:03.676Z,18.66
2018-09-19T01:46:03.677Z,18.63
2018-09-19T01:48:00.047Z,18.72
2018-09-19T01:48:59.096Z,18.63
2018-09-19T01:50:57.048Z,18.63
2018-09-19T01:51:57.559Z,18.59
2018-09-19T01:53:56.512Z,18.69
2018-09-19T01:54:55.488Z,18.63
2018-09-19T01:56:54.034Z,18.76
2018-09-19T01:57:53.970Z,18.66
2018-09-19T01:59:49.043Z,18.72
2018-09-19T02:00:49.600Z,18.66
2018-09-19T02:02:45.051Z,18.65
2018-09-19T02:03:45.017Z,18.63
2018-09-19T02:05:44.955Z,18.71
2018-09-19T02:06:43.108Z,18.57
2018-09-19T02:08:42.108Z,18.47
2018-09-19T02:09:41.226Z,18.47
2018-09-19T02:11:39.335Z,18.44
2018-09-19T02:12:39.317Z,18.41
2018-09-19T02:14:37.768Z,18.42
2018-09-19T02:15:37.277Z,18.36
2018-09-19T02:17:36.244Z,18.49
2018-09-19T02:18:35.700Z,18.44
2018-09-19T02:20:34.661Z,18.45
2018-09-19T02:21:34.695Z,18.41
2018-09-19T02:23:32.153Z,18.41
2018-09-19T02:24:31.617Z,18.39
2018-09-19T02:26:33.065Z,18.42
2018-09-19T02:27:32.057Z,18.36
2018-09-19T02:29:30.514Z,18.34
2018-09-19T02:30:30.532Z,18.29
2018-09-19T02:32:28.136Z,18.27
2018-09-19T02:33:28.091Z,18.19
2018-09-19T02:35:26.068Z,18.19
2018-09-19T02:36:26.032Z,18.17
2018-09-19T02:38:24.493Z,18.20
2018-09-19T02:39:24.001Z,18.17
2018-09-19T02:41:21.911Z,18.29
2018-09-19T02:42:21.962Z,18.14
2018-09-19T02:44:21.881Z,18.16
2018-09-19T02:45:20.018Z,18.14
2018-09-19T02:47:17.982Z,18.24
2018-09-19T02:48:17.495Z,18.26
2018-09-19T02:50:14.908Z,18.20
2018-09-19T02:51:14.897Z,18.17
2018-09-19T02:53:13.383Z,18.17
2018-09-19T02:54:13.018Z,18.21
2018-09-19T02:56:08.938Z,18.21
2018-09-19T02:57:09.477Z,18.21
2018-09-19T02:59:05.449Z,18.24
2018-09-19T03:00:04.933Z,18.23
2018-09-19T03:02:02.892Z,18.19
2018-09-19T03:03:02.878Z,18.20
2018-09-19T03:05:01.842Z,18.20
2018-09-19T03:06:01.019Z,18.24
2018-09-19T03:07:58.978Z,18.21
2018-09-19T03:10:13.944Z,18.20
2018-09-19T03:11:13.954Z,18.17
2018-09-19T03:13:11.905Z,18.21
2018-09-19T03:14:11.892Z,18.17
2018-09-19T03:16:10.385Z,18.17
2018-09-19T03:17:10.376Z,18.13
2018-09-19T03:19:08.317Z,18.08
2018-09-19T03:20:07.810Z,18.08
2018-09-19T03:22:06.781Z,18.17
2018-09-19T03:23:05.916Z,18.05
2018-09-19T03:25:04.402Z,18.08
2018-09-19T03:26:06.752Z,18.03
2018-09-19T03:28:02.473Z,18.14
2018-09-19T03:29:01.972Z,18.05
2018-09-19T03:31:01.437Z,18.02
2018-09-19T03:31:59.952Z,18.03
2018-09-19T03:33:57.925Z,18.05
2018-09-19T03:34:58.435Z,18.08
2018-09-19T03:36:55.891Z,18.06
2018-09-19T03:37:55.833Z,18.06
2018-09-19T03:39:55.269Z,18.05
2018-09-19T03:40:56.192Z,18.10
2018-09-19T03:42:52.206Z,18.03
2018-09-19T03:43:52.208Z,18.05
2018-09-19T03:45:50.191Z,18.03
2018-09-19T03:46:49.807Z,17.99
2018-09-19T03:48:47.774Z,18.01
2018-09-19T03:49:47.786Z,18.06
2018-09-19T03:51:45.698Z,18.02
2018-09-19T03:52:45.729Z,18.02
2018-09-19T03:54:43.689Z,18.05
2018-09-19T03:55:44.152Z,18.01
2018-09-19T03:57:41.588Z,18.08
2018-09-19T03:58:41.612Z,18.08
2018-09-19T04:00:37.539Z,18.13
2018-09-19T04:01:37.540Z,18.13
2018-09-19T04:03:35.651Z,18.13
2018-09-19T04:04:35.687Z,17.99
2018-09-19T04:06:34.614Z,18.20
2018-09-19T04:07:34.546Z,18.14
2018-09-19T04:09:34.205Z,18.14
2018-09-19T04:10:34.233Z,18.17
2018-09-19T04:12:32.687Z,18.03
2018-09-19T04:13:32.387Z,18.05
2018-09-19T04:15:32.369Z,18.03
2018-09-19T04:16:32.252Z,18.01
2018-09-19T04:18:29.428Z,18.01
2018-09-19T04:19:28.924Z,18.05
2018-09-19T04:21:25.371Z,18.02
2018-09-19T04:22:24.396Z,18.03
2018-09-19T04:24:22.307Z,18.14
2018-09-19T04:25:22.328Z,18.03
2018-09-19T04:27:21.275Z,18.16
2018-09-19T04:28:20.291Z,18.16
2018-09-19T04:30:19.270Z,18.03
2018-09-19T04:31:18.214Z,18.06
2018-09-19T04:33:16.695Z,17.99
2018-09-19T04:34:16.182Z,18.01
2018-09-19T04:36:15.148Z,18.06
2018-09-19T04:37:14.636Z,17.99
2018-09-19T04:39:13.098Z,17.98
2018-09-19T04:40:13.131Z,18.03
2018-09-19T04:42:10.221Z,17.99
2018-09-19T04:43:10.802Z,17.98
2018-09-19T04:45:08.424Z,17.99
2018-09-19T04:46:08.356Z,18.03
2018-09-19T04:48:06.300Z,17.99
2018-09-19T04:49:06.306Z,17.88
2018-09-19T04:51:04.758Z,17.99
2018-09-19T04:52:04.390Z,18.02
2018-09-19T04:54:02.335Z,18.08
2018-09-19T04:55:02.330Z,18.05
2018-09-19T04:57:00.304Z,17.94
2018-09-19T04:58:00.264Z,17.96
2018-09-19T04:59:58.723Z,17.92
2018-09-19T05:00:58.755Z,17.88
2018-09-19T05:02:59.165Z,18.01
2018-09-19T05:03:58.659Z,18.01
2018-09-19T05:05:58.630Z,18.03
2018-09-19T05:06:58.636Z,18.13
2018-09-19T05:08:55.804Z,18.01
2018-09-19T05:09:55.761Z,18.05
2018-09-19T05:11:55.227Z,18.10
2018-09-19T05:12:55.223Z,18.11
2018-09-19T05:14:56.202Z,18.11
2018-09-19T05:15:55.725Z,18.03
2018-09-19T05:17:56.149Z,18.11
2018-09-19T05:18:56.159Z,18.08
2018-09-19T05:20:54.163Z,18.14
2018-09-19T05:21:54.074Z,18.11
2018-09-19T05:23:52.011Z,18.13
2018-09-19T05:24:52.542Z,18.14
2018-09-19T05:26:52.983Z,18.16
2018-09-19T05:27:51.994Z,18.17
2018-09-19T05:29:50.451Z,18.21
2018-09-19T05:30:50.949Z,18.17
2018-09-19T05:32:49.413Z,18.17
2018-09-19T05:33:47.900Z,18.29
2018-09-19T05:35:48.454Z,18.27
2018-09-19T05:36:49.915Z,18.29
2018-09-19T05:38:46.830Z,18.34
2018-09-19T05:39:46.309Z,18.36
2018-09-19T05:41:42.750Z,18.34
2018-09-19T05:42:42.259Z,18.42
2018-09-19T05:44:38.224Z,18.42
2018-09-19T05:45:38.199Z,18.47
2018-09-19T05:47:36.569Z,18.51
2018-09-19T05:48:34.180Z,18.54
2018-09-19T05:50:34.598Z,18.59
2018-09-19T05:51:34.597Z,18.65
2018-09-19T05:53:41.239Z,18.65
2018-09-19T05:54:39.991Z,18.75
2018-09-19T05:57:09.468Z,18.72
2018-09-19T05:58:01.490Z,18.81
2018-09-19T05:59:57.978Z,18.74
2018-09-19T06:00:57.043Z,18.89
2018-09-19T06:02:52.975Z,18.81
2018-09-19T06:03:52.975Z,18.84
2018-09-19T06:05:48.457Z,18.93
2018-09-19T06:06:48.405Z,18.96
2018-09-19T06:08:45.853Z,19.02
2018-09-19T06:09:44.838Z,19.06
2018-09-19T06:11:42.338Z,19.06
2018-09-19T06:12:42.353Z,19.09
2018-09-19T06:14:38.236Z,19.13
2018-09-19T06:15:38.236Z,18.96
2018-09-19T06:17:34.230Z,19.19
2018-09-19T06:18:34.204Z,19.15
2018-09-19T06:20:30.173Z,19.24
2018-09-19T06:21:30.145Z,19.20
2018-09-19T06:23:26.605Z,19.30
2018-09-19T06:24:26.099Z,19.30
2018-09-19T06:26:22.036Z,19.37
2018-09-19T06:27:22.041Z,19.43
2018-09-19T06:29:18.505Z,19.52
2018-09-19T06:30:18.507Z,19.43
2018-09-19T06:32:15.915Z,19.53
2018-09-19T06:33:14.006Z,19.55
2018-09-19T06:35:09.861Z,19.56
2018-09-19T06:36:09.861Z,19.53
2018-09-19T06:38:06.810Z,19.60
2018-09-19T06:40:21.860Z,19.74
2018-09-19T06:41:22.276Z,19.67
2018-09-19T06:43:17.694Z,19.70
2018-09-19T06:44:17.716Z,19.70
2018-09-19T06:46:13.668Z,19.79
2018-09-19T06:47:13.642Z,19.74
2018-09-19T06:49:09.599Z,19.85
2018-09-19T06:50:09.609Z,19.86
2018-09-19T06:52:07.293Z,19.90
2018-09-19T06:53:06.094Z,19.97
2018-09-19T06:55:02.521Z,19.97
2018-09-19T06:56:01.531Z,20.00
2018-09-19T06:57:57.462Z,20.08
2018-09-19T06:58:58.009Z,20.08
2018-09-19T07:00:55.415Z,20.07
2018-09-19T07:01:55.933Z,20.12
2018-09-19T07:03:53.380Z,20.12
2018-09-19T07:04:54.902Z,20.10
2018-09-19T07:06:49.329Z,20.26
2018-09-19T07:07:49.348Z,20.34
2018-09-19T07:09:45.285Z,20.42
2018-09-19T07:10:45.310Z,20.40
2018-09-19T07:12:41.717Z,20.44
2018-09-19T07:13:41.695Z,20.60
2018-09-19T07:15:37.150Z,20.56
2018-09-19T07:16:37.137Z,20.67
2018-09-19T07:18:33.591Z,20.66
2018-09-19T07:19:33.081Z,20.68
2018-09-19T07:21:29.020Z,20.76
2018-09-19T07:22:29.016Z,20.79
2018-09-19T07:24:25.494Z,20.83
2018-09-19T07:25:25.485Z,20.88
2018-09-19T07:27:20.940Z,20.93
2018-09-19T07:28:21.436Z,20.91
2018-09-19T07:30:16.850Z,20.94
2018-09-19T07:31:16.875Z,20.98
2018-09-19T07:33:14.836Z,21.03
2018-09-19T07:34:14.316Z,21.03
2018-09-19T07:36:09.739Z,21.12
2018-09-19T07:37:09.748Z,21.18
2018-09-19T07:39:08.754Z,21.27
2018-09-19T07:40:08.725Z,21.31
2018-09-19T07:42:04.325Z,21.36
2018-09-19T07:43:04.324Z,21.38
2018-09-19T07:45:00.271Z,21.38
2018-09-19T07:46:00.280Z,21.43
2018-09-19T07:47:55.752Z,21.49
2018-09-19T07:48:55.743Z,21.48
2018-09-19T07:50:51.738Z,21.66
2018-09-19T07:51:51.688Z,21.68
2018-09-19T07:53:48.165Z,21.71
2018-09-19T07:54:47.770Z,21.78
2018-09-19T07:56:44.187Z,21.93
2018-09-19T07:57:43.669Z,21.94
2018-09-19T07:59:39.595Z,22.16
2018-09-19T08:00:39.605Z,22.18
2018-09-19T08:02:36.541Z,22.31
2018-09-19T08:03:35.530Z,22.34
2018-09-19T08:05:31.992Z,22.45
2018-09-19T08:06:31.493Z,22.39
2018-09-19T08:08:27.467Z,22.54
2018-09-19T08:09:28.439Z,22.49
2018-09-19T08:11:24.902Z,22.67
2018-09-19T08:12:23.407Z,22.69
2018-09-19T08:14:19.904Z,22.86
2018-09-19T08:15:19.869Z,22.97
2018-09-19T08:17:15.299Z,23.14
2018-09-19T08:18:15.315Z,23.26
2018-09-19T08:20:13.263Z,23.34
2018-09-19T08:21:13.235Z,23.38
2018-09-19T08:23:09.800Z,23.47
2018-09-19T08:24:09.236Z,23.60
2018-09-19T08:26:05.164Z,23.71
2018-09-19T08:27:05.156Z,23.70
2018-09-19T08:29:01.159Z,23.77
2018-09-19T08:30:01.118Z,23.81
2018-09-19T08:31:57.578Z,23.77
2018-09-19T08:32:57.075Z,23.77
2018-09-19T08:34:53.032Z,23.74
2018-09-19T08:35:53.025Z,23.71
2018-09-19T08:37:48.975Z,23.64
2018-09-19T08:38:48.969Z,23.60
2018-09-19T08:40:44.967Z,23.62
2018-09-19T08:41:45.944Z,23.53
2018-09-19T08:43:41.439Z,23.55
2018-09-19T08:44:42.427Z,23.62
2018-09-19T08:46:36.933Z,23.70
2018-09-19T08:47:36.906Z,23.63
2018-09-19T08:49:32.845Z,23.84
2018-09-19T08:50:32.868Z,23.74
2018-09-19T08:52:29.817Z,23.90
2018-09-19T08:53:29.792Z,23.99
2018-09-19T08:55:26.257Z,24.09
2018-09-19T08:56:26.259Z,24.17
2018-09-19T08:58:21.669Z,24.24
2018-09-19T08:59:22.225Z,24.30
2018-09-19T09:01:18.694Z,24.36
2018-09-19T09:02:17.652Z,24.40
2018-09-19T09:04:14.138Z,24.51
2018-09-19T09:05:13.607Z,24.49
2018-09-19T09:07:10.065Z,24.64
2018-09-19T09:08:09.578Z,24.69
2018-09-19T09:10:07.586Z,24.66
2018-09-19T09:11:07.496Z,24.82
2018-09-19T09:13:03.456Z,24.83
2018-09-19T09:14:03.485Z,25.01
2018-09-19T09:15:59.925Z,25.02
2018-09-19T09:16:59.932Z,25.11
2018-09-19T09:18:58.535Z,25.26
2018-09-19T09:19:58.616Z,25.27
2018-09-19T09:21:58.033Z,25.37
2018-09-19T09:22:56.664Z,25.41
2018-09-19T09:24:54.881Z,25.44
2018-09-19T09:25:55.637Z,25.56
2018-09-19T09:27:51.368Z,25.71
2018-09-19T09:28:50.904Z,25.78
2018-09-19T09:30:49.357Z,25.88
2018-09-19T09:31:49.847Z,26.06
2018-09-19T09:33:44.977Z,26.19
2018-09-19T09:34:45.895Z,26.16
2018-09-19T09:36:40.944Z,26.16
2018-09-19T09:37:40.910Z,26.24
2018-09-19T09:39:37.369Z,26.22
2018-09-19T09:40:36.906Z,26.30
2018-09-19T09:42:34.817Z,26.22
2018-09-19T09:43:35.354Z,26.26
2018-09-19T09:45:31.281Z,26.35
2018-09-19T09:46:30.769Z,26.37
2018-09-19T09:48:27.235Z,26.53
2018-09-19T09:49:26.744Z,26.61
2018-09-19T09:51:25.280Z,26.68
2018-09-19T09:52:24.863Z,26.76
2018-09-19T09:54:22.995Z,26.97
2018-09-19T09:55:23.754Z,27.04
2018-09-19T09:57:23.494Z,27.11
2018-09-19T09:58:23.474Z,27.04
2018-09-19T10:00:21.416Z,27.11
2018-09-19T10:01:21.427Z,27.11
2018-09-19T10:03:17.408Z,27.11
2018-09-19T10:04:18.396Z,27.11
2018-09-19T10:06:13.368Z,27.21
2018-09-19T10:07:14.369Z,27.36
2018-09-19T10:09:11.522Z,27.38
2018-09-19T10:10:11.530Z,27.41
2018-09-19T10:12:08.027Z,27.53
2018-09-19T10:13:07.485Z,27.64
2018-09-19T10:15:05.495Z,27.61
2018-09-19T10:16:06.456Z,27.66
2018-09-19T10:18:01.447Z,27.71
2018-09-19T10:19:01.426Z,27.71
2018-09-19T10:20:57.401Z,27.57
2018-09-19T10:21:57.890Z,27.57
2018-09-19T10:23:53.362Z,27.49
2018-09-19T10:24:53.355Z,27.48
2018-09-19T10:26:49.331Z,27.43
2018-09-19T10:27:50.309Z,27.41
2018-09-19T10:29:45.840Z,27.42
2018-09-19T10:30:45.263Z,27.45
2018-09-19T10:32:41.308Z,27.42
2018-09-19T10:33:41.733Z,27.36
2018-09-19T10:35:37.726Z,27.33
2018-09-19T10:36:37.700Z,27.27
2018-09-19T10:38:34.166Z,27.41
2018-09-19T10:39:33.210Z,27.46
2018-09-19T10:41:30.148Z,27.57
2018-09-19T10:42:30.138Z,27.66
2018-09-19T10:44:27.321Z,27.71
2018-09-19T10:45:27.323Z,27.80
2018-09-19T10:47:25.254Z,27.81
2018-09-19T10:48:25.286Z,27.89
2018-09-19T10:50:21.752Z,27.94
2018-09-19T10:51:21.233Z,27.98
2018-09-19T10:53:17.236Z,27.93
2018-09-19T10:54:18.194Z,27.96
2018-09-19T10:56:15.335Z,28.05
2018-09-19T10:57:16.178Z,28.12
2018-09-19T10:59:11.340Z,27.87
2018-09-19T11:00:11.329Z,27.98
2018-09-19T11:02:07.293Z,27.81
2018-09-19T11:03:08.330Z,27.80
2018-09-19T11:05:04.272Z,27.87
2018-09-19T11:06:04.274Z,27.93
2018-09-19T11:07:59.236Z,27.96
2018-09-19T11:08:59.234Z,28.11
2018-09-19T11:10:55.720Z,28.17
2018-09-19T11:11:55.206Z,28.18
2018-09-19T11:13:53.696Z,28.09
2018-09-19T11:14:53.377Z,28.11
2018-09-19T11:16:51.476Z,28.26
2018-09-19T11:17:52.430Z,28.28
2018-09-19T11:20:00.494Z,28.38
2018-09-19T11:22:40.655Z,28.45
2018-09-19T11:23:40.514Z,28.38
2018-09-19T11:25:39.055Z,28.45
2018-09-19T11:26:37.489Z,28.43
2018-09-19T11:28:34.440Z,28.46
2018-09-19T11:29:34.483Z,28.48
2018-09-19T11:31:30.432Z,28.41
2018-09-19T11:32:30.432Z,28.45
2018-09-19T11:35:14.004Z,28.55
2018-09-19T11:36:05.084Z,28.54
2018-09-19T11:38:01.075Z,28.53
2018-09-19T11:39:01.048Z,28.58
2018-09-19T11:40:57.043Z,28.78
2018-09-19T11:41:57.516Z,28.85
2018-09-19T11:43:52.979Z,28.94
2018-09-19T11:44:52.978Z,28.94
2018-09-19T11:46:50.986Z,29.03
2018-09-19T11:47:52.462Z,28.90
2018-09-19T11:49:57.744Z,29.10
2018-09-19T11:50:54.232Z,29.08
2018-09-19T11:52:46.659Z,29.26
2018-09-19T11:53:46.404Z,29.21
2018-09-19T11:55:44.368Z,29.20
2018-09-19T11:56:43.396Z,29.21
2018-09-19T11:58:39.363Z,29.21
2018-09-19T11:59:39.396Z,29.23
2018-09-19T12:01:35.365Z,29.24
2018-09-19T12:02:35.326Z,29.26
2018-09-19T12:04:33.333Z,29.42
2018-09-19T12:05:33.356Z,29.40
2018-09-19T12:07:29.319Z,29.65
2018-09-19T12:08:29.327Z,29.58
2018-09-19T12:10:25.788Z,29.63
2018-09-19T12:11:26.278Z,29.39
2018-09-19T12:13:21.289Z,29.33
2018-09-19T12:14:21.286Z,29.20
2018-09-19T12:16:18.249Z,29.26
2018-09-19T12:17:17.275Z,29.33
2018-09-19T12:19:13.234Z,29.54
2018-09-19T12:20:13.256Z,29.58
2018-09-19T12:22:09.243Z,29.57
2018-09-19T12:23:09.221Z,29.60
2018-09-19T12:25:06.226Z,29.63
2018-09-19T12:26:05.185Z,29.61
2018-09-19T12:28:02.692Z,29.60
2018-09-19T12:29:01.233Z,29.55
2018-09-19T12:30:57.150Z,29.38
2018-09-19T12:31:57.162Z,29.32
2018-09-19T12:34:02.347Z,29.11
2018-09-19T12:34:52.055Z,29.08
2018-09-19T12:36:54.174Z,29.02
2018-09-19T12:37:54.171Z,29.10
2018-09-19T12:39:51.146Z,29.11
2018-09-19T12:40:50.146Z,29.17
2018-09-19T12:42:50.085Z,29.29
2018-09-19T12:43:52.038Z,29.32
2018-09-19T12:45:49.901Z,29.45
2018-09-19T12:46:48.927Z,29.57
2018-09-19T12:48:45.895Z,29.70
2018-09-19T12:49:45.089Z,29.72
2018-09-19T12:51:41.047Z,29.72
2018-09-19T12:52:41.057Z,29.65
2018-09-19T12:54:37.571Z,29.69
2018-09-19T12:55:37.018Z,29.81
2018-09-19T12:57:33.998Z,29.79
2018-09-19T12:58:32.989Z,29.85
2018-09-19T13:00:29.451Z,29.84
2018-09-19T13:01:28.955Z,29.84
2018-09-19T13:03:32.346Z,29.77
2018-09-19T13:04:29.723Z,29.76
2018-09-19T13:06:25.737Z,29.77
2018-09-19T13:07:25.683Z,29.77
2018-09-19T13:09:23.148Z,29.82
2018-09-19T13:10:21.628Z,29.84
2018-09-19T13:12:19.757Z,29.98
2018-09-19T13:13:21.599Z,29.95
2018-09-19T13:15:15.736Z,29.98
2018-09-19T13:16:15.737Z,30.02
2018-09-19T13:18:11.712Z,30.07
2018-09-19T13:19:11.703Z,30.06
2018-09-19T13:21:07.671Z,30.13
2018-09-19T13:22:07.660Z,29.98
2018-09-19T13:24:03.667Z,29.69
2018-09-19T13:25:03.644Z,29.72
2018-09-19T13:27:00.612Z,29.75
2018-09-19T13:27:59.642Z,29.77
2018-09-19T13:29:57.220Z,29.87
2018-09-19T13:30:55.606Z,29.85
2018-09-19T13:32:54.099Z,29.77
2018-09-19T13:33:54.572Z,29.76
2018-09-19T13:35:49.560Z,29.67
2018-09-19T13:36:49.546Z,29.60
2018-09-19T13:38:46.515Z,29.61
2018-09-19T13:39:45.516Z,29.57
2018-09-19T13:41:41.517Z,29.57
2018-09-19T13:42:41.484Z,29.55
2018-09-19T13:44:37.977Z,29.54
2018-09-19T13:45:38.382Z,29.57
2018-09-19T13:47:45.954Z,29.55
2018-09-19T13:48:45.947Z,29.60
2018-09-19T13:50:42.906Z,29.55
2018-09-19T13:51:41.898Z,29.61
2018-09-19T13:54:10.924Z,29.65
2018-09-19T13:57:08.679Z,29.65
2018-09-19T13:58:08.695Z,29.67
2018-09-19T14:00:04.656Z,29.69
2018-09-19T14:01:05.159Z,29.69
2018-09-19T14:03:02.634Z,29.67
2018-09-19T14:04:02.674Z,29.60
2018-09-19T14:05:59.649Z,29.55
2018-09-19T14:07:00.121Z,29.50
2018-09-19T14:08:58.609Z,29.47
2018-09-19T14:09:58.115Z,29.58
2018-09-19T14:11:54.538Z,29.63
2018-09-19T14:12:53.538Z,29.55
2018-09-19T14:14:49.547Z,29.54
2018-09-19T14:15:49.539Z,29.47
2018-09-19T14:17:45.487Z,29.48
2018-09-19T14:18:45.501Z,29.47
2018-09-19T14:20:44.127Z,29.40
2018-09-19T14:21:43.455Z,29.40
2018-09-19T14:23:39.937Z,29.47
2018-09-19T14:24:39.545Z,29.55
2018-09-19T14:26:37.159Z,29.55
2018-09-19T14:27:35.430Z,29.58
2018-09-19T14:29:31.903Z,29.63
2018-09-19T14:30:31.906Z,29.63
2018-09-19T14:32:27.842Z,29.54
2018-09-19T14:33:27.377Z,29.67
2018-09-19T14:35:23.342Z,29.70
2018-09-19T14:36:23.303Z,29.65
2018-09-19T14:38:19.315Z,29.63
2018-09-19T14:39:20.276Z,29.57
2018-09-19T14:41:16.834Z,29.55
2018-09-19T14:42:15.265Z,29.51
2018-09-19T14:44:11.237Z,29.61
2018-09-19T14:45:11.743Z,29.67
2018-09-19T14:47:07.713Z,29.55
2018-09-19T14:48:07.716Z,29.58
2018-09-19T14:50:07.635Z,29.57
2018-09-19T14:51:07.650Z,29.51
2018-09-19T14:53:04.549Z,29.52
2018-09-19T14:54:03.630Z,29.52
2018-09-19T14:56:00.097Z,29.63
2018-09-19T14:56:59.650Z,29.69
2018-09-19T14:58:55.557Z,29.61
2018-09-19T15:01:11.613Z,29.66
2018-09-19T15:02:11.563Z,29.58
2018-09-19T15:04:09.018Z,29.58
2018-09-19T15:05:09.066Z,29.63
2018-09-19T15:07:04.481Z,29.57
2018-09-19T15:08:04.601Z,29.65
2018-09-19T15:10:00.479Z,29.57
2018-09-19T15:11:00.433Z,29.54
2018-09-19T15:12:56.885Z,29.52
2018-09-19T15:13:56.391Z,29.58
2018-09-19T15:15:54.344Z,29.61
2018-09-19T15:16:54.426Z,29.54
2018-09-19T15:18:52.337Z,29.57
2018-09-19T15:19:52.313Z,29.50
2018-09-19T15:21:49.309Z,29.58
2018-09-19T15:22:49.281Z,29.58
2018-09-19T15:24:44.332Z,29.51
2018-09-19T15:25:44.328Z,29.36
2018-09-19T15:27:42.248Z,29.47
2018-09-19T15:28:41.251Z,29.42
2018-09-19T15:30:38.724Z,29.43
2018-09-19T15:31:38.411Z,29.38
2018-09-19T15:33:34.428Z,29.36
2018-09-19T15:34:34.412Z,29.43
2018-09-19T15:36:30.395Z,29.36
2018-09-19T15:37:30.360Z,29.45
2018-09-19T15:39:26.821Z,29.54
2018-09-19T15:40:26.349Z,29.42
2018-09-19T15:42:22.380Z,29.39
2018-09-19T15:43:22.287Z,29.38
2018-09-19T15:45:18.270Z,29.39
2018-09-19T15:46:18.264Z,29.36
2018-09-19T15:48:14.256Z,29.30
2018-09-19T15:49:15.213Z,29.30
2018-09-19T15:51:10.193Z,29.29
2018-09-19T15:52:11.132Z,29.28
2018-09-19T15:54:06.240Z,29.29
2018-09-19T15:55:07.159Z,29.30
2018-09-19T15:57:02.691Z,29.33
2018-09-19T15:59:19.160Z,29.26
2018-09-19T16:00:18.667Z,29.20
2018-09-19T16:02:17.118Z,29.24
2018-09-19T16:03:17.100Z,29.10
2018-09-19T16:05:14.773Z,29.11
2018-09-19T16:06:14.339Z,29.06
2018-09-19T16:08:12.403Z,29.13
2018-09-19T16:09:12.422Z,29.03
2018-09-19T16:11:11.873Z,29.13
2018-09-19T16:12:10.346Z,29.02
2018-09-19T16:14:08.326Z,29.03
2018-09-19T16:15:08.324Z,29.06
2018-09-19T16:17:06.492Z,28.97
2018-09-19T16:18:07.316Z,29.06
2018-09-19T16:20:03.443Z,28.95
2018-09-19T16:21:03.525Z,28.95
2018-09-19T16:22:59.938Z,28.92
2018-09-19T16:23:59.445Z,28.86
2018-09-19T16:25:57.967Z,28.85
2018-09-19T16:26:56.492Z,28.82
2018-09-19T16:28:55.349Z,28.80
2018-09-19T16:29:54.556Z,28.80
2018-09-19T16:31:55.902Z,28.75
2018-09-19T16:32:54.920Z,28.70
2018-09-19T16:34:51.360Z,28.64
2018-09-19T16:35:50.881Z,28.68
2018-09-19T16:37:48.886Z,28.60
2018-09-19T16:38:47.842Z,28.57
2018-09-19T16:40:45.783Z,28.49
2018-09-19T16:41:44.834Z,28.53
2018-09-19T16:43:44.247Z,28.48
2018-09-19T16:44:43.747Z,28.46
2018-09-19T16:46:40.964Z,28.42
2018-09-19T16:47:41.432Z,28.42
2018-09-19T16:49:42.364Z,28.39
2018-09-19T16:50:41.357Z,28.35
2018-09-19T16:52:43.336Z,28.31
2018-09-19T16:53:41.880Z,28.27
2018-09-19T16:55:41.801Z,28.30
2018-09-19T16:56:39.846Z,28.24
2018-09-19T16:58:41.382Z,28.20
2018-09-19T16:59:37.997Z,28.09
2018-09-19T17:01:35.990Z,28.06
2018-09-19T17:02:36.463Z,27.90
2018-09-19T17:04:33.922Z,27.93
2018-09-19T17:05:33.974Z,27.93
2018-09-19T17:07:34.319Z,27.91
2018-09-19T17:08:32.099Z,27.98
2018-09-19T17:10:31.125Z,27.90
2018-09-19T17:11:30.218Z,27.76
2018-09-19T17:13:29.690Z,27.76
2018-09-19T17:14:28.342Z,27.71
2018-09-19T17:16:29.325Z,27.64
2018-09-19T17:17:29.808Z,27.61
2018-09-19T17:19:24.756Z,27.55
2018-09-19T17:20:25.305Z,27.43
2018-09-19T17:22:26.244Z,27.41
2018-09-19T17:23:25.242Z,27.38
2018-09-19T17:25:25.752Z,27.34
2018-09-19T17:26:25.737Z,27.30
2018-09-19T17:28:22.168Z,27.30
2018-09-19T17:29:22.161Z,27.28
2018-09-19T17:31:20.697Z,27.19
2018-09-19T17:32:20.145Z,27.21
2018-09-19T17:34:18.612Z,27.06
2018-09-19T17:35:17.786Z,27.12
2018-09-19T17:37:15.749Z,27.05
2018-09-19T17:38:16.257Z,27.00
2018-09-19T17:40:13.748Z,27.01
2018-09-19T17:41:13.702Z,26.90
2018-09-19T17:43:14.200Z,26.90
2018-09-19T17:44:14.147Z,26.72
2018-09-19T17:46:12.293Z,26.67
2018-09-19T17:47:12.311Z,26.74
2018-09-19T17:49:09.236Z,26.64
2018-09-19T17:50:09.287Z,26.67
2018-09-19T17:52:08.786Z,26.63
2018-09-19T17:53:09.760Z,26.52
2018-09-19T17:55:06.729Z,26.49
2018-09-19T17:56:07.728Z,26.47
2018-09-19T17:58:08.195Z,26.47
2018-09-19T17:59:07.196Z,26.41
2018-09-19T18:01:08.692Z,26.41
2018-09-19T18:02:09.722Z,26.34
2018-09-19T18:04:09.654Z,26.27
2018-09-19T18:05:09.140Z,26.22
2018-09-19T18:07:07.112Z,26.01
2018-09-19T18:08:07.594Z,26.03
2018-09-19T18:10:03.007Z,26.03
2018-09-19T18:11:03.059Z,26.06
2018-09-19T18:12:58.996Z,25.91
2018-09-19T18:13:58.991Z,25.93
2018-09-19T18:15:54.969Z,25.93
2018-09-19T18:16:54.949Z,25.96
2018-09-19T18:18:50.927Z,25.82
2018-09-19T18:19:50.945Z,25.86
2018-09-19T18:21:47.398Z,25.85
2018-09-19T18:22:47.404Z,25.81
2018-09-19T18:24:42.921Z,25.81
2018-09-19T18:25:42.919Z,25.71
2018-09-19T18:27:40.887Z,25.69
2018-09-19T18:28:41.378Z,25.63
2018-09-19T18:30:36.861Z,25.62
2018-09-19T18:31:36.827Z,25.63
2018-09-19T18:33:33.802Z,25.51
2018-09-19T18:34:33.799Z,25.47
2018-09-19T18:36:28.808Z,25.45
2018-09-19T18:37:28.787Z,25.49
2018-09-19T18:39:24.788Z,25.48
2018-09-19T18:40:24.723Z,25.47
2018-09-19T18:42:20.666Z,25.45
2018-09-19T18:43:21.186Z,25.37
2018-09-19T18:45:16.627Z,25.34
2018-09-19T18:46:16.631Z,25.23
2018-09-19T18:48:13.089Z,25.26
2018-09-19T18:49:12.615Z,25.26
2018-09-19T18:51:08.559Z,25.33
2018-09-19T18:52:08.563Z,25.26
2018-09-19T18:54:06.028Z,25.30
2018-09-19T18:55:04.502Z,25.22
2018-09-19T18:57:01.495Z,25.17
2018-09-19T18:58:01.488Z,25.17
2018-09-19T18:59:57.389Z,25.19
2018-09-19T19:00:57.386Z,25.07
2018-09-19T19:02:53.370Z,25.12
2018-09-19T19:03:54.349Z,25.07
2018-09-19T19:05:50.252Z,25.14
2018-09-19T19:06:49.335Z,25.04
2018-09-19T19:08:45.266Z,25.05
2018-09-19T19:09:45.282Z,24.94